sensor_id;sensor_type;location;lat;lon;timestamp;P1;durP1;ratioP1;P2;durP2;ratioP2
41629;SDS011;27322;49.488;8.480;2023-04-01T00:01:24;4.07;;;0.60;;
41629;SDS011;27322;49.488;8.480;2023-04-01T00:03:51;3.25;;;0.60;;
41629;SDS011;27322;49.488;8.480;2023-04-01T00:06:17;4.30;;;0.77;;
41629;SDS011;27322;49.488;8.480;2023-04-01T00:08:43;4.35;;;0.73;;
41629;SDS011;27322;49.488;8.480;2023-04-01T00:11:09;3.47;;;0.60;;
41629;SDS011;27322;49.488;8.480;2023-04-01T00:13:35;3.67;;;0.70;;
41629;SDS011;27322;49.488;8.480;2023-04-01T00:16:01;3.63;;;0.60;;
41629;SDS011;27322;49.488;8.480;2023-04-01T00:18:28;4.38;;;0.65;;
41629;SDS011;27322;49.488;8.480;2023-04-01T00:20:53;7.50;;;0.75;;
41629;SDS011;27322;49.488;8.480;2023-04-01T00:23:19;3.85;;;0.65;;
41629;SDS011;27322;49.488;8.480;2023-04-01T00:25:45;3.80;;;0.50;;
41629;SDS011;27322;49.488;8.480;2023-04-01T00:28:13;4.78;;;0.90;;
41629;SDS011;27322;49.488;8.480;2023-04-01T00:30:39;1.98;;;0.45;;
41629;SDS011;27322;49.488;8.480;2023-04-01T00:33:05;2.15;;;0.40;;
41629;SDS011;27322;49.488;8.480;2023-04-01T00:35:31;4.10;;;0.60;;
41629;SDS011;27322;49.488;8.480;2023-04-01T00:37:57;4.10;;;0.60;;
41629;SDS011;27322;49.488;8.480;2023-04-01T00:42:57;4.50;;;0.70;;
41629;SDS011;27322;49.488;8.480;2023-04-01T00:45:28;2.35;;;0.60;;
41629;SDS011;27322;49.488;8.480;2023-04-01T00:48:01;3.28;;;0.75;;
41629;SDS011;27322;49.488;8.480;2023-04-01T00:50:30;3.72;;;0.80;;
41629;SDS011;27322;49.488;8.480;2023-04-01T00:53:00;4.95;;;0.80;;
41629;SDS011;27322;49.488;8.480;2023-04-01T00:55:27;3.92;;;0.73;;
41629;SDS011;27322;49.488;8.480;2023-04-01T00:57:55;4.80;;;0.60;;
41629;SDS011;27322;49.488;8.480;2023-04-01T01:00:23;3.60;;;0.77;;
41629;SDS011;27322;49.488;8.480;2023-04-01T01:02:49;6.50;;;1.00;;
41629;SDS011;27322;49.488;8.480;2023-04-01T01:05:16;4.20;;;0.60;;
41629;SDS011;27322;49.488;8.480;2023-04-01T01:07:52;6.40;;;0.85;;
41629;SDS011;27322;49.488;8.480;2023-04-01T01:10:30;3.03;;;0.60;;
41629;SDS011;27322;49.488;8.480;2023-04-01T01:13:11;2.78;;;0.60;;
41629;SDS011;27322;49.488;8.480;2023-04-01T01:26:44;5.72;;;0.85;;
41629;SDS011;27322;49.488;8.480;2023-04-01T01:37:49;2.88;;;0.60;;
41629;SDS011;27322;49.488;8.480;2023-04-01T01:40:19;3.97;;;0.70;;
41629;SDS011;27322;49.488;8.480;2023-04-01T01:42:47;5.70;;;0.80;;
41629;SDS011;27322;49.488;8.480;2023-04-01T01:45:18;4.70;;;0.80;;
41629;SDS011;27322;49.488;8.480;2023-04-01T01:47:46;4.35;;;1.00;;
41629;SDS011;27322;49.488;8.480;2023-04-01T01:50:14;4.78;;;0.60;;
41629;SDS011;27322;49.488;8.480;2023-04-01T01:52:40;4.68;;;0.60;;
41629;SDS011;27322;49.488;8.480;2023-04-01T01:55:22;6.47;;;0.70;;
41629;SDS011;27322;49.488;8.480;2023-04-01T01:58:00;7.53;;;0.82;;
41629;SDS011;27322;49.488;8.480;2023-04-01T02:00:30;4.85;;;0.80;;
41629;SDS011;27322;49.488;8.480;2023-04-01T02:02:56;4.60;;;0.80;;
41629;SDS011;27322;49.488;8.480;2023-04-01T02:05:24;3.25;;;0.60;;
41629;SDS011;27322;49.488;8.480;2023-04-01T02:08:01;5.38;;;0.70;;
41629;SDS011;27322;49.488;8.480;2023-04-01T02:10:31;5.80;;;0.82;;
41629;SDS011;27322;49.488;8.480;2023-04-01T02:13:02;5.05;;;1.17;;
41629;SDS011;27322;49.488;8.480;2023-04-01T02:15:35;3.67;;;0.68;;
41629;SDS011;27322;49.488;8.480;2023-04-01T02:18:06;4.32;;;0.63;;
41629;SDS011;27322;49.488;8.480;2023-04-01T02:20:32;4.13;;;1.17;;
41629;SDS011;27322;49.488;8.480;2023-04-01T02:23:00;5.15;;;0.80;;
41629;SDS011;27322;49.488;8.480;2023-04-01T02:25:27;4.25;;;0.70;;
41629;SDS011;27322;49.488;8.480;2023-04-01T02:27:55;3.88;;;0.93;;
41629;SDS011;27322;49.488;8.480;2023-04-01T02:30:23;6.22;;;0.77;;
41629;SDS011;27322;49.488;8.480;2023-04-01T02:32:51;3.38;;;0.68;;
41629;SDS011;27322;49.488;8.480;2023-04-01T02:35:19;5.00;;;0.70;;
41629;SDS011;27322;49.488;8.480;2023-04-01T02:37:45;5.95;;;0.77;;
41629;SDS011;27322;49.488;8.480;2023-04-01T02:40:14;4.40;;;0.70;;
41629;SDS011;27322;49.488;8.480;2023-04-01T02:42:41;4.38;;;0.68;;
41629;SDS011;27322;49.488;8.480;2023-04-01T02:45:07;3.75;;;0.70;;
41629;SDS011;27322;49.488;8.480;2023-04-01T02:47:34;4.15;;;0.60;;
41629;SDS011;27322;49.488;8.480;2023-04-01T02:49:59;4.25;;;0.60;;
41629;SDS011;27322;49.488;8.480;2023-04-01T02:52:25;4.03;;;0.90;;
41629;SDS011;27322;49.488;8.480;2023-04-01T02:54:52;2.88;;;0.57;;
41629;SDS011;27322;49.488;8.480;2023-04-01T02:57:18;2.97;;;0.60;;
41629;SDS011;27322;49.488;8.480;2023-04-01T02:59:43;5.15;;;0.55;;
41629;SDS011;27322;49.488;8.480;2023-04-01T03:02:09;2.58;;;0.47;;
41629;SDS011;27322;49.488;8.480;2023-04-01T03:04:35;3.90;;;0.60;;
41629;SDS011;27322;49.488;8.480;2023-04-01T03:07:00;5.18;;;0.60;;
41629;SDS011;27322;49.488;8.480;2023-04-01T03:09:26;5.18;;;0.60;;
41629;SDS011;27322;49.488;8.480;2023-04-01T03:11:53;3.60;;;0.60;;
41629;SDS011;27322;49.488;8.480;2023-04-01T03:14:19;4.38;;;0.60;;
41629;SDS011;27322;49.488;8.480;2023-04-01T03:16:45;3.65;;;0.52;;
41629;SDS011;27322;49.488;8.480;2023-04-01T03:19:11;3.38;;;0.68;;
41629;SDS011;27322;49.488;8.480;2023-04-01T03:21:36;3.97;;;0.60;;
41629;SDS011;27322;49.488;8.480;2023-04-01T03:24:02;3.47;;;0.50;;
41629;SDS011;27322;49.488;8.480;2023-04-01T03:26:28;3.53;;;0.47;;
41629;SDS011;27322;49.488;8.480;2023-04-01T03:28:55;3.22;;;0.50;;
41629;SDS011;27322;49.488;8.480;2023-04-01T03:31:21;2.13;;;0.43;;
41629;SDS011;27322;49.488;8.480;2023-04-01T03:33:47;5.10;;;0.70;;
41629;SDS011;27322;49.488;8.480;2023-04-01T03:36:13;6.20;;;0.60;;
41629;SDS011;27322;49.488;8.480;2023-04-01T03:38:42;3.40;;;0.60;;
41629;SDS011;27322;49.488;8.480;2023-04-01T03:41:15;2.95;;;0.52;;
41629;SDS011;27322;49.488;8.480;2023-04-01T03:43:42;3.55;;;0.60;;
41629;SDS011;27322;49.488;8.480;2023-04-01T03:46:08;5.43;;;0.80;;
41629;SDS011;27322;49.488;8.480;2023-04-01T03:48:34;2.22;;;0.50;;
41629;SDS011;27322;49.488;8.480;2023-04-01T03:51:00;3.85;;;0.52;;
41629;SDS011;27322;49.488;8.480;2023-04-01T03:53:26;3.97;;;0.70;;
41629;SDS011;27322;49.488;8.480;2023-04-01T03:55:52;2.97;;;0.57;;
41629;SDS011;27322;49.488;8.480;2023-04-01T03:58:18;2.35;;;0.50;;
41629;SDS011;27322;49.488;8.480;2023-04-01T04:00:44;4.10;;;0.73;;
41629;SDS011;27322;49.488;8.480;2023-04-01T04:03:10;3.45;;;0.68;;
41629;SDS011;27322;49.488;8.480;2023-04-01T04:05:35;3.72;;;0.52;;
41629;SDS011;27322;49.488;8.480;2023-04-01T04:08:01;3.72;;;0.60;;
41629;SDS011;27322;49.488;8.480;2023-04-01T04:10:27;4.47;;;0.80;;
41629;SDS011;27322;49.488;8.480;2023-04-01T04:12:54;4.20;;;0.60;;
41629;SDS011;27322;49.488;8.480;2023-04-01T04:15:20;3.05;;;0.60;;
41629;SDS011;27322;49.488;8.480;2023-04-01T04:17:45;5.75;;;0.50;;
41629;SDS011;27322;49.488;8.480;2023-04-01T04:20:11;4.38;;;0.60;;
41629;SDS011;27322;49.488;8.480;2023-04-01T04:22:37;3.00;;;0.50;;
41629;SDS011;27322;49.488;8.480;2023-04-01T04:25:02;2.95;;;0.60;;
41629;SDS011;27322;49.488;8.480;2023-04-01T04:27:28;3.70;;;0.65;;
41629;SDS011;27322;49.488;8.480;2023-04-01T04:29:54;5.30;;;0.63;;
41629;SDS011;27322;49.488;8.480;2023-04-01T04:32:20;3.22;;;0.70;;
41629;SDS011;27322;49.488;8.480;2023-04-01T04:34:46;2.15;;;0.50;;
41629;SDS011;27322;49.488;8.480;2023-04-01T04:37:11;4.53;;;0.63;;
41629;SDS011;27322;49.488;8.480;2023-04-01T04:39:37;3.10;;;0.45;;
41629;SDS011;27322;49.488;8.480;2023-04-01T04:42:02;3.20;;;0.50;;
41629;SDS011;27322;49.488;8.480;2023-04-01T04:44:28;3.35;;;0.55;;
41629;SDS011;27322;49.488;8.480;2023-04-01T04:46:54;3.38;;;0.60;;
41629;SDS011;27322;49.488;8.480;2023-04-01T04:49:20;3.20;;;0.50;;
41629;SDS011;27322;49.488;8.480;2023-04-01T04:51:45;4.43;;;0.70;;
41629;SDS011;27322;49.488;8.480;2023-04-01T04:54:11;4.72;;;0.75;;
41629;SDS011;27322;49.488;8.480;2023-04-01T04:56:37;4.60;;;0.70;;
41629;SDS011;27322;49.488;8.480;2023-04-01T04:59:02;2.40;;;0.47;;
41629;SDS011;27322;49.488;8.480;2023-04-01T05:01:28;3.38;;;0.70;;
41629;SDS011;27322;49.488;8.480;2023-04-01T05:03:53;3.22;;;0.55;;
41629;SDS011;27322;49.488;8.480;2023-04-01T05:06:19;6.97;;;1.15;;
41629;SDS011;27322;49.488;8.480;2023-04-01T05:08:45;4.57;;;0.55;;
41629;SDS011;27322;49.488;8.480;2023-04-01T05:11:16;4.28;;;0.68;;
41629;SDS011;27322;49.488;8.480;2023-04-01T05:13:43;4.22;;;0.70;;
41629;SDS011;27322;49.488;8.480;2023-04-01T05:16:10;3.40;;;0.50;;
41629;SDS011;27322;49.488;8.480;2023-04-01T05:18:38;4.15;;;0.82;;
41629;SDS011;27322;49.488;8.480;2023-04-01T05:21:04;3.95;;;0.70;;
41629;SDS011;27322;49.488;8.480;2023-04-01T05:23:32;5.32;;;0.70;;
41629;SDS011;27322;49.488;8.480;2023-04-01T05:25:58;4.88;;;0.82;;
41629;SDS011;27322;49.488;8.480;2023-04-01T05:28:24;2.60;;;0.50;;
41629;SDS011;27322;49.488;8.480;2023-04-01T05:30:49;5.15;;;0.82;;
41629;SDS011;27322;49.488;8.480;2023-04-01T05:33:15;5.20;;;0.63;;
41629;SDS011;27322;49.488;8.480;2023-04-01T05:35:41;4.90;;;0.80;;
41629;SDS011;27322;49.488;8.480;2023-04-01T05:38:07;3.65;;;0.80;;
41629;SDS011;27322;49.488;8.480;2023-04-01T05:40:33;3.95;;;0.70;;
41629;SDS011;27322;49.488;8.480;2023-04-01T05:42:58;2.60;;;0.60;;
41629;SDS011;27322;49.488;8.480;2023-04-01T05:45:25;3.85;;;0.70;;
41629;SDS011;27322;49.488;8.480;2023-04-01T05:47:50;4.88;;;0.95;;
41629;SDS011;27322;49.488;8.480;2023-04-01T05:50:16;3.33;;;0.65;;
41629;SDS011;27322;49.488;8.480;2023-04-01T05:52:42;3.85;;;0.60;;
41629;SDS011;27322;49.488;8.480;2023-04-01T05:55:08;4.32;;;0.73;;
41629;SDS011;27322;49.488;8.480;2023-04-01T05:57:34;3.63;;;0.70;;
41629;SDS011;27322;49.488;8.480;2023-04-01T05:59:59;4.32;;;0.77;;
41629;SDS011;27322;49.488;8.480;2023-04-01T06:02:25;3.05;;;0.60;;
41629;SDS011;27322;49.488;8.480;2023-04-01T06:04:53;3.55;;;0.68;;
41629;SDS011;27322;49.488;8.480;2023-04-01T06:07:36;3.15;;;0.60;;
41629;SDS011;27322;49.488;8.480;2023-04-01T06:10:05;4.35;;;0.80;;
41629;SDS011;27322;49.488;8.480;2023-04-01T06:15:57;3.65;;;0.70;;
41629;SDS011;27322;49.488;8.480;2023-04-01T06:29:49;2.63;;;0.50;;
41629;SDS011;27322;49.488;8.480;2023-04-01T06:40:19;2.30;;;0.47;;
41629;SDS011;27322;49.488;8.480;2023-04-01T06:43:21;2.47;;;0.45;;
41629;SDS011;27322;49.488;8.480;2023-04-01T06:46:13;3.13;;;0.40;;
41629;SDS011;27322;49.488;8.480;2023-04-01T06:49:05;2.05;;;0.40;;
41629;SDS011;27322;49.488;8.480;2023-04-01T06:54:36;3.00;;;0.50;;
41629;SDS011;27322;49.488;8.480;2023-04-01T06:57:08;2.63;;;0.40;;
41629;SDS011;27322;49.488;8.480;2023-04-01T06:59:47;3.03;;;0.40;;
41629;SDS011;27322;49.488;8.480;2023-04-01T07:02:19;1.95;;;0.43;;
41629;SDS011;27322;49.488;8.480;2023-04-01T07:05:01;2.30;;;0.50;;
41629;SDS011;27322;49.488;8.480;2023-04-01T07:07:39;2.20;;;0.40;;
41629;SDS011;27322;49.488;8.480;2023-04-01T07:10:15;1.98;;;0.38;;
41629;SDS011;27322;49.488;8.480;2023-04-01T07:12:47;3.42;;;0.50;;
41629;SDS011;27322;49.488;8.480;2023-04-01T07:15:19;2.05;;;0.47;;
41629;SDS011;27322;49.488;8.480;2023-04-01T07:17:52;2.22;;;0.63;;
41629;SDS011;27322;49.488;8.480;2023-04-01T07:20:35;1.73;;;0.40;;
41629;SDS011;27322;49.488;8.480;2023-04-01T07:23:03;3.33;;;0.70;;
41629;SDS011;27322;49.488;8.480;2023-04-01T07:25:39;2.22;;;0.40;;
41629;SDS011;27322;49.488;8.480;2023-04-01T07:28:14;2.38;;;0.40;;
41629;SDS011;27322;49.488;8.480;2023-04-01T07:36:45;1.50;;;0.30;;
41629;SDS011;27322;49.488;8.480;2023-04-01T07:50:36;2.13;;;0.60;;
41629;SDS011;27322;49.488;8.480;2023-04-01T07:53:24;2.25;;;0.40;;
41629;SDS011;27322;49.488;8.480;2023-04-01T07:56:15;1.58;;;0.40;;
41629;SDS011;27322;49.488;8.480;2023-04-01T08:01:49;1.85;;;0.47;;
41629;SDS011;27322;49.488;8.480;2023-04-01T08:04:34;2.38;;;0.40;;
41629;SDS011;27322;49.488;8.480;2023-04-01T08:07:23;2.40;;;0.60;;
41629;SDS011;27322;49.488;8.480;2023-04-01T08:22:51;1.70;;;0.47;;
41629;SDS011;27322;49.488;8.480;2023-04-01T08:25:28;2.28;;;0.50;;
41629;SDS011;27322;49.488;8.480;2023-04-01T08:30:58;3.63;;;0.57;;
41629;SDS011;27322;49.488;8.480;2023-04-01T08:33:30;2.20;;;0.47;;
41629;SDS011;27322;49.488;8.480;2023-04-01T08:39:13;1.58;;;0.40;;
41629;SDS011;27322;49.488;8.480;2023-04-01T08:44:44;2.40;;;0.40;;
41629;SDS011;27322;49.488;8.480;2023-04-01T08:53:18;1.33;;;0.30;;
41629;SDS011;27322;49.488;8.480;2023-04-01T09:12:51;1.17;;;0.38;;
41629;SDS011;27322;49.488;8.480;2023-04-01T09:44:37;1.17;;;0.25;;
41629;SDS011;27322;49.488;8.480;2023-04-01T09:47:28;1.17;;;0.40;;
41629;SDS011;27322;49.488;8.480;2023-04-01T10:28:26;2.38;;;0.40;;
41629;SDS011;27322;49.488;8.480;2023-04-01T10:53:04;0.90;;;0.40;;
41629;SDS011;27322;49.488;8.480;2023-04-01T11:35:42;0.50;;;0.30;;
41629;SDS011;27322;49.488;8.480;2023-04-01T11:43:46;1.98;;;0.50;;
41629;SDS011;27322;49.488;8.480;2023-04-01T11:52:31;0.93;;;0.50;;
41629;SDS011;27322;49.488;8.480;2023-04-01T12:05:58;0.60;;;0.30;;
41629;SDS011;27322;49.488;8.480;2023-04-01T12:08:53;0.70;;;0.30;;
41629;SDS011;27322;49.488;8.480;2023-04-01T12:11:33;1.88;;;0.30;;
41629;SDS011;27322;49.488;8.480;2023-04-01T12:22:24;0.43;;;0.30;;
41629;SDS011;27322;49.488;8.480;2023-04-01T12:33:54;1.58;;;0.40;;
41629;SDS011;27322;49.488;8.480;2023-04-01T12:36:54;1.63;;;0.40;;
41629;SDS011;27322;49.488;8.480;2023-04-01T12:39:48;1.50;;;0.40;;
41629;SDS011;27322;49.488;8.480;2023-04-01T12:55:41;2.67;;;0.20;;
41629;SDS011;27322;49.488;8.480;2023-04-01T13:17:33;0.57;;;0.30;;
41629;SDS011;27322;49.488;8.480;2023-04-01T13:28:00;0.95;;;0.30;;
41629;SDS011;27322;49.488;8.480;2023-04-01T13:30:43;1.45;;;0.30;;
41629;SDS011;27322;49.488;8.480;2023-04-01T13:36:34;1.88;;;0.40;;
41629;SDS011;27322;49.488;8.480;2023-04-01T13:55:53;0.82;;;0.30;;
41629;SDS011;27322;49.488;8.480;2023-04-01T14:00:55;1.80;;;0.60;;
41629;SDS011;27322;49.488;8.480;2023-04-01T14:06:34;1.58;;;0.57;;
41629;SDS011;27322;49.488;8.480;2023-04-01T14:09:27;1.63;;;0.40;;
41629;SDS011;27322;49.488;8.480;2023-04-01T14:22:38;1.73;;;0.47;;
41629;SDS011;27322;49.488;8.480;2023-04-01T14:39:27;1.25;;;0.40;;
41629;SDS011;27322;49.488;8.480;2023-04-01T14:47:50;2.03;;;0.63;;
41629;SDS011;27322;49.488;8.480;2023-04-01T14:50:24;2.13;;;0.60;;
41629;SDS011;27322;49.488;8.480;2023-04-01T14:58:10;1.25;;;0.50;;
41629;SDS011;27322;49.488;8.480;2023-04-01T15:21:42;1.95;;;0.55;;
41629;SDS011;27322;49.488;8.480;2023-04-01T15:26:55;1.30;;;0.50;;
41629;SDS011;27322;49.488;8.480;2023-04-01T15:38:52;2.95;;;0.65;;
41629;SDS011;27322;49.488;8.480;2023-04-01T15:47:00;1.10;;;0.45;;
41629;SDS011;27322;49.488;8.480;2023-04-01T15:49:35;1.98;;;0.65;;
41629;SDS011;27322;49.488;8.480;2023-04-01T15:55:01;2.42;;;0.65;;
41629;SDS011;27322;49.488;8.480;2023-04-01T16:05:41;1.98;;;0.70;;
41629;SDS011;27322;49.488;8.480;2023-04-01T16:16:51;1.17;;;0.40;;
41629;SDS011;27322;49.488;8.480;2023-04-01T16:19:22;1.45;;;0.57;;
41629;SDS011;27322;49.488;8.480;2023-04-01T16:22:03;0.70;;;0.37;;
41629;SDS011;27322;49.488;8.480;2023-04-01T16:24:46;1.75;;;0.40;;
41629;SDS011;27322;49.488;8.480;2023-04-01T16:27:36;1.25;;;0.50;;
41629;SDS011;27322;49.488;8.480;2023-04-01T16:30:38;1.40;;;0.50;;
41629;SDS011;27322;49.488;8.480;2023-04-01T16:33:18;1.00;;;0.50;;
41629;SDS011;27322;49.488;8.480;2023-04-01T16:38:50;0.95;;;0.43;;
41629;SDS011;27322;49.488;8.480;2023-04-01T16:41:35;1.42;;;0.40;;
41629;SDS011;27322;49.488;8.480;2023-04-01T16:44:23;0.77;;;0.40;;
41629;SDS011;27322;49.488;8.480;2023-04-01T16:46:54;2.42;;;0.40;;
41629;SDS011;27322;49.488;8.480;2023-04-01T16:49:30;1.67;;;0.60;;
41629;SDS011;27322;49.488;8.480;2023-04-01T17:05:34;1.35;;;0.40;;
41629;SDS011;27322;49.488;8.480;2023-04-01T17:10:52;2.67;;;0.52;;
41629;SDS011;27322;49.488;8.480;2023-04-01T17:30:16;1.40;;;0.50;;
41629;SDS011;27322;49.488;8.480;2023-04-01T17:35:32;2.08;;;0.60;;
41629;SDS011;27322;49.488;8.480;2023-04-01T17:47:00;1.25;;;0.47;;
41629;SDS011;27322;49.488;8.480;2023-04-01T18:20:07;1.67;;;0.60;;
41629;SDS011;27322;49.488;8.480;2023-04-01T18:22:45;1.35;;;0.60;;
41629;SDS011;27322;49.488;8.480;2023-04-01T18:30:41;2.13;;;0.75;;
41629;SDS011;27322;49.488;8.480;2023-04-01T18:33:20;2.47;;;0.77;;
41629;SDS011;27322;49.488;8.480;2023-04-01T18:35:55;2.35;;;0.70;;
41629;SDS011;27322;49.488;8.480;2023-04-01T18:41:32;2.22;;;0.70;;
41629;SDS011;27322;49.488;8.480;2023-04-01T18:47:27;3.35;;;0.80;;
41629;SDS011;27322;49.488;8.480;2023-04-01T18:49:55;3.55;;;0.80;;
41629;SDS011;27322;49.488;8.480;2023-04-01T18:52:37;1.30;;;0.60;;
41629;SDS011;27322;49.488;8.480;2023-04-01T19:03:02;1.48;;;0.60;;
41629;SDS011;27322;49.488;8.480;2023-04-01T19:05:36;2.45;;;0.95;;
41629;SDS011;27322;49.488;8.480;2023-04-01T19:08:17;2.75;;;0.88;;
41629;SDS011;27322;49.488;8.480;2023-04-01T19:10:56;2.15;;;0.70;;
41629;SDS011;27322;49.488;8.480;2023-04-01T19:16:25;4.50;;;0.90;;
41629;SDS011;27322;49.488;8.480;2023-04-01T19:18:58;2.03;;;0.77;;
41629;SDS011;27322;49.488;8.480;2023-04-01T19:21:26;1.77;;;0.80;;
41629;SDS011;27322;49.488;8.480;2023-04-01T19:29:26;2.65;;;0.80;;
41629;SDS011;27322;49.488;8.480;2023-04-01T19:32:09;1.77;;;0.70;;
41629;SDS011;27322;49.488;8.480;2023-04-01T19:34:53;2.42;;;0.90;;
41629;SDS011;27322;49.488;8.480;2023-04-01T19:51:03;2.50;;;0.90;;
41629;SDS011;27322;49.488;8.480;2023-04-01T20:00:27;2.13;;;0.85;;
41629;SDS011;27322;49.488;8.480;2023-04-01T20:07:52;3.08;;;0.82;;
41629;SDS011;27322;49.488;8.480;2023-04-01T20:10:32;2.17;;;0.80;;
41629;SDS011;27322;49.488;8.480;2023-04-01T20:16:01;2.40;;;0.93;;
41629;SDS011;27322;49.488;8.480;2023-04-01T20:21:18;1.98;;;0.90;;
41629;SDS011;27322;49.488;8.480;2023-04-01T20:24:31;2.55;;;0.90;;
41629;SDS011;27322;49.488;8.480;2023-04-01T20:27:00;1.92;;;0.93;;
41629;SDS011;27322;49.488;8.480;2023-04-01T20:30:06;2.92;;;0.88;;
41629;SDS011;27322;49.488;8.480;2023-04-01T20:41:20;2.72;;;1.00;;
41629;SDS011;27322;49.488;8.480;2023-04-01T20:43:57;2.88;;;1.10;;
41629;SDS011;27322;49.488;8.480;2023-04-01T20:49:20;2.40;;;0.90;;
41629;SDS011;27322;49.488;8.480;2023-04-01T21:03:16;1.80;;;0.80;;
41629;SDS011;27322;49.488;8.480;2023-04-01T21:09:02;2.15;;;0.77;;
41629;SDS011;27322;49.488;8.480;2023-04-01T21:11:35;1.98;;;0.85;;
41629;SDS011;27322;49.488;8.480;2023-04-01T21:27:45;2.05;;;0.90;;
41629;SDS011;27322;49.488;8.480;2023-04-01T21:31:04;1.98;;;1.08;;
41629;SDS011;27322;49.488;8.480;2023-04-01T21:33:28;2.08;;;1.00;;
41629;SDS011;27322;49.488;8.480;2023-04-01T21:44:58;2.70;;;1.17;;
41629;SDS011;27322;49.488;8.480;2023-04-01T22:05:54;2.38;;;0.90;;
41629;SDS011;27322;49.488;8.480;2023-04-01T22:08:32;2.22;;;0.95;;
41629;SDS011;27322;49.488;8.480;2023-04-01T22:11:19;2.83;;;0.90;;
41629;SDS011;27322;49.488;8.480;2023-04-01T22:14:13;1.73;;;0.80;;
41629;SDS011;27322;49.488;8.480;2023-04-01T22:16:58;1.80;;;0.80;;
41629;SDS011;27322;49.488;8.480;2023-04-01T22:30:28;3.17;;;0.90;;
41629;SDS011;27322;49.488;8.480;2023-04-01T22:49:17;2.65;;;0.90;;
41629;SDS011;27322;49.488;8.480;2023-04-01T22:56:50;3.38;;;0.90;;
41629;SDS011;27322;49.488;8.480;2023-04-01T23:02:14;2.00;;;0.90;;
41629;SDS011;27322;49.488;8.480;2023-04-01T23:04:43;3.33;;;0.98;;
41629;SDS011;27322;49.488;8.480;2023-04-01T23:07:21;2.70;;;1.00;;
41629;SDS011;27322;49.488;8.480;2023-04-01T23:10:18;3.47;;;1.27;;
41629;SDS011;27322;49.488;8.480;2023-04-01T23:13:05;3.90;;;1.10;;
41629;SDS011;27322;49.488;8.480;2023-04-01T23:15:37;3.17;;;1.00;;
41629;SDS011;27322;49.488;8.480;2023-04-01T23:20:42;4.45;;;1.20;;
41629;SDS011;27322;49.488;8.480;2023-04-01T23:23:23;2.70;;;1.00;;
41629;SDS011;27322;49.488;8.480;2023-04-01T23:26:06;3.33;;;1.10;;
41629;SDS011;27322;49.488;8.480;2023-04-01T23:31:41;2.50;;;1.10;;
41629;SDS011;27322;49.488;8.480;2023-04-01T23:34:02;3.10;;;1.25;;
41629;SDS011;27322;49.488;8.480;2023-04-01T23:36:38;4.53;;;1.52;;
41629;SDS011;27322;49.488;8.480;2023-04-01T23:39:09;2.45;;;1.20;;
41629;SDS011;27322;49.488;8.480;2023-04-01T23:41:51;3.40;;;1.08;;
41629;SDS011;27322;49.488;8.480;2023-04-01T23:44:19;2.17;;;0.90;;
41629;SDS011;27322;49.488;8.480;2023-04-01T23:46:46;3.63;;;1.02;;
41629;SDS011;27322;49.488;8.480;2023-04-01T23:49:47;3.08;;;0.90;;
41629;SDS011;27322;49.488;8.480;2023-04-01T23:58:38;3.30;;;0.90;;
